createdAt,value
2022-12-18T00:00:57.643Z,12.43
2022-12-18T00:04:02.544Z,12.47
2022-12-18T00:07:08.541Z,12.43
2022-12-18T00:10:15.368Z,12.53
2022-12-18T00:13:21.388Z,12.37
2022-12-18T00:16:35.005Z,12.31
2022-12-18T00:19:40.212Z,12.32
2022-12-18T00:22:39.474Z,12.21
2022-12-18T00:25:41.130Z,12.23
2022-12-18T00:28:47.085Z,12.13
2022-12-18T00:31:52.896Z,12.07
2022-12-18T00:34:58.099Z,12.04
2022-12-18T00:38:03.609Z,11.99
2022-12-18T00:41:09.891Z,11.98
2022-12-18T00:44:16.172Z,11.93
2022-12-18T00:47:24.222Z,11.89
2022-12-18T00:50:29.934Z,11.80
2022-12-18T00:53:35.786Z,11.81
2022-12-18T00:56:49.965Z,11.88
2022-12-18T00:59:48.910Z,11.69
2022-12-18T01:02:54.555Z,11.74
2022-12-18T01:06:00.816Z,11.71
2022-12-18T01:09:06.323Z,11.55
2022-12-18T01:12:11.084Z,11.45
2022-12-18T01:15:17.442Z,11.38
2022-12-18T01:18:22.748Z,11.33
2022-12-18T01:21:31.876Z,11.31
2022-12-18T01:24:38.501Z,11.27
2022-12-18T01:27:44.204Z,11.14
2022-12-18T01:30:49.909Z,11.04
2022-12-18T01:33:56.062Z,11.01
2022-12-18T01:37:02.109Z,10.88
2022-12-18T01:40:07.910Z,10.94
2022-12-18T01:43:13.417Z,10.81
2022-12-18T01:46:19.292Z,10.71
2022-12-18T01:49:27.025Z,10.62
2022-12-18T01:52:32.708Z,10.62
2022-12-18T01:55:39.952Z,10.43
2022-12-18T01:58:58.065Z,10.29
2022-12-18T02:02:04.529Z,10.10
2022-12-18T02:05:11.396Z,9.78
2022-12-18T02:08:36.437Z,9.50
2022-12-18T02:12:10.070Z,9.24
2022-12-18T02:15:32.914Z,9.02
2022-12-18T02:18:43.133Z,8.80
2022-12-18T02:22:37.158Z,8.75
2022-12-18T02:26:17.267Z,8.63
2022-12-18T02:29:30.597Z,8.63
2022-12-18T02:32:43.082Z,8.53
2022-12-18T02:35:49.360Z,8.43
2022-12-18T02:38:57.582Z,8.24
2022-12-18T02:42:02.483Z,8.08
2022-12-18T02:45:11.256Z,8.00
2022-12-18T02:48:16.782Z,7.65
2022-12-18T02:51:32.882Z,7.55
2022-12-18T02:54:59.479Z,7.48
2022-12-18T02:58:38.493Z,7.35
2022-12-18T03:01:55.123Z,7.30
2022-12-18T03:05:15.279Z,7.29
2022-12-18T03:08:39.985Z,7.22
2022-12-18T03:12:05.972Z,6.94
2022-12-18T03:15:36.877Z,6.85
2022-12-18T03:18:52.033Z,6.86
2022-12-18T03:22:06.012Z,6.81
2022-12-18T03:25:15.671Z,6.64
2022-12-18T03:28:24.004Z,6.40
2022-12-18T03:31:31.757Z,6.52
2022-12-18T03:34:45.081Z,6.45
2022-12-18T03:37:52.193Z,6.22
2022-12-18T03:41:20.275Z,6.17
2022-12-18T03:44:48.938Z,6.08
2022-12-18T03:48:21.897Z,5.95
2022-12-18T03:51:40.414Z,6.03
2022-12-18T03:54:46.110Z,5.93
2022-12-18T03:57:51.638Z,5.90
2022-12-18T04:00:59.857Z,5.93
2022-12-18T04:04:06.622Z,5.87
2022-12-18T04:07:12.072Z,5.84
2022-12-18T04:10:18.789Z,5.81
2022-12-18T04:13:24.634Z,5.82
2022-12-18T04:16:30.979Z,5.92
2022-12-18T04:19:38.688Z,5.88
2022-12-18T04:22:44.202Z,5.84
2022-12-18T04:25:50.394Z,5.68
2022-12-18T04:28:59.075Z,5.73
2022-12-18T04:32:04.427Z,5.69
2022-12-18T04:35:11.535Z,5.61
2022-12-18T04:38:17.936Z,5.64
2022-12-18T04:41:25.375Z,5.70
2022-12-18T04:44:30.941Z,5.72
2022-12-18T04:47:38.271Z,5.79
2022-12-18T04:50:38.045Z,5.77
2022-12-18T04:53:30.693Z,5.82
2022-12-18T04:56:36.340Z,5.78
2022-12-18T04:59:42.529Z,5.79
2022-12-18T05:02:48.763Z,5.71
2022-12-18T05:05:55.282Z,5.73
2022-12-18T05:09:01.434Z,5.61
2022-12-18T05:12:07.310Z,5.55
2022-12-18T05:15:12.715Z,5.51
2022-12-18T05:18:18.246Z,5.47
2022-12-18T05:21:24.154Z,5.55
2022-12-18T05:24:36.482Z,5.80
2022-12-18T05:27:42.584Z,5.84
2022-12-18T05:30:50.076Z,5.47
2022-12-18T05:33:54.938Z,5.28
2022-12-18T05:37:00.910Z,5.28
2022-12-18T05:40:05.719Z,5.12
2022-12-18T05:43:10.792Z,5.19
2022-12-18T05:46:15.040Z,5.32
2022-12-18T05:49:20.954Z,5.13
2022-12-18T05:52:26.054Z,5.04
2022-12-18T05:55:31.387Z,5.06
2022-12-18T05:58:31.907Z,5.11
2022-12-18T06:01:31.890Z,5.24
2022-12-18T06:04:37.357Z,5.16
2022-12-18T06:07:43.053Z,5.16
2022-12-18T06:10:48.655Z,5.19
2022-12-18T06:13:58.276Z,5.17
2022-12-18T06:17:01.709Z,5.22
2022-12-18T06:20:07.820Z,5.12
2022-12-18T06:23:13.008Z,5.08
2022-12-18T06:26:28.376Z,4.97
2022-12-18T06:29:33.243Z,4.93
2022-12-18T06:32:39.147Z,4.86
2022-12-18T06:35:43.909Z,4.80
2022-12-18T06:38:50.345Z,4.87
2022-12-18T06:41:55.358Z,4.76
2022-12-18T06:45:01.802Z,4.79
2022-12-18T06:48:07.576Z,4.68
2022-12-18T06:51:13.687Z,4.78
2022-12-18T06:54:19.910Z,4.85
2022-12-18T06:57:26.624Z,4.84
2022-12-18T07:00:32.648Z,4.80
2022-12-18T07:03:40.016Z,4.82
2022-12-18T07:06:45.536Z,4.78
2022-12-18T07:09:51.322Z,4.89
2022-12-18T07:12:57.151Z,4.83
2022-12-18T07:16:03.170Z,4.94
2022-12-18T07:19:10.200Z,4.90
2022-12-18T07:22:16.661Z,4.87
2022-12-18T07:25:26.774Z,4.85
2022-12-18T07:28:32.060Z,5.04
2022-12-18T07:31:37.712Z,5.08
2022-12-18T07:34:43.532Z,5.02
2022-12-18T07:37:50.530Z,4.94
2022-12-18T07:40:55.983Z,4.74
2022-12-18T07:44:02.563Z,4.75
2022-12-18T07:47:12.031Z,4.74
2022-12-18T07:50:18.669Z,4.88
2022-12-18T07:53:23.893Z,4.73
2022-12-18T07:56:31.210Z,4.73
2022-12-18T07:59:37.198Z,4.70
2022-12-18T08:02:44.680Z,4.74
2022-12-18T08:05:51.331Z,4.78
2022-12-18T08:08:57.265Z,4.70
2022-12-18T08:12:03.408Z,4.73
2022-12-18T08:15:09.508Z,4.86
2022-12-18T08:18:15.153Z,4.82
2022-12-18T08:21:35.135Z,4.71
2022-12-18T08:24:41.380Z,4.69
2022-12-18T08:27:48.655Z,4.82
2022-12-18T08:30:55.814Z,4.84
2022-12-18T08:34:00.370Z,4.76
2022-12-18T08:37:06.501Z,4.78
2022-12-18T08:40:11.500Z,4.66
2022-12-18T08:43:35.748Z,4.88
2022-12-18T08:46:42.712Z,4.91
2022-12-18T08:49:49.298Z,4.88
2022-12-18T08:52:55.461Z,4.72
2022-12-18T08:56:02.443Z,4.75
2022-12-18T08:59:15.781Z,4.69
2022-12-18T09:02:17.957Z,4.48
2022-12-18T09:05:24.329Z,4.33
2022-12-18T09:08:29.780Z,4.32
2022-12-18T09:11:41.068Z,4.25
2022-12-18T09:14:47.454Z,4.29
2022-12-18T09:17:53.509Z,4.29
2022-12-18T09:21:00.371Z,4.45
2022-12-18T09:24:09.691Z,4.47
2022-12-18T09:27:14.875Z,4.42
2022-12-18T09:30:22.161Z,4.16
2022-12-18T09:33:27.652Z,4.04
2022-12-18T09:36:34.510Z,3.90
2022-12-18T09:39:40.478Z,3.84
2022-12-18T09:42:47.095Z,3.81
2022-12-18T09:45:57.402Z,3.78
2022-12-18T09:49:05.197Z,3.77
2022-12-18T09:52:26.724Z,3.72
2022-12-18T09:55:51.251Z,3.65
2022-12-18T09:59:04.329Z,3.62
2022-12-18T10:02:10.123Z,3.61
2022-12-18T10:05:20.946Z,3.52
2022-12-18T10:08:50.918Z,3.36
2022-12-18T10:12:20.204Z,3.37
2022-12-18T10:15:37.716Z,3.36
2022-12-18T10:18:55.920Z,3.38
2022-12-18T10:22:15.428Z,3.32
2022-12-18T10:25:32.311Z,3.29
2022-12-18T10:28:37.781Z,3.14
2022-12-18T10:31:43.948Z,3.05
2022-12-18T10:34:50.644Z,2.97
2022-12-18T10:38:00.728Z,2.95
2022-12-18T10:41:19.205Z,2.83
2022-12-18T10:44:37.917Z,2.78
2022-12-18T10:47:42.854Z,2.77
2022-12-18T10:54:04.398Z,2.95
2022-12-18T10:57:13.479Z,3.15
2022-12-18T11:00:43.249Z,2.76
2022-12-18T11:04:01.987Z,2.81
2022-12-18T11:07:23.479Z,2.92
2022-12-18T11:10:32.765Z,2.75
2022-12-18T11:13:44.001Z,2.77
2022-12-18T11:17:24.949Z,2.74
2022-12-18T11:20:12.464Z,2.86
2022-12-18T11:23:27.021Z,2.86
2022-12-18T11:26:32.389Z,2.80
2022-12-18T11:29:47.151Z,2.75
2022-12-18T11:32:55.121Z,2.78
2022-12-18T11:36:11.861Z,2.76
2022-12-18T11:39:36.443Z,2.80
2022-12-18T11:42:53.486Z,2.76
2022-12-18T11:46:19.923Z,2.68
2022-12-18T11:49:31.404Z,2.58
2022-12-18T11:52:56.075Z,2.55
2022-12-18T11:56:03.291Z,2.56
2022-12-18T11:59:21.631Z,2.52
2022-12-18T12:02:33.657Z,2.46
2022-12-18T12:06:09.195Z,2.52
2022-12-18T12:09:40.943Z,2.51
2022-12-18T12:13:19.845Z,2.70
2022-12-18T12:16:41.038Z,2.77
2022-12-18T12:19:59.596Z,2.70
2022-12-18T12:23:13.020Z,2.79
2022-12-18T12:26:44.591Z,2.75
2022-12-18T12:30:10.244Z,2.78
2022-12-18T12:33:45.101Z,2.73
2022-12-18T12:37:29.056Z,2.75
2022-12-18T12:40:56.974Z,2.81
2022-12-18T12:44:00.781Z,2.76
2022-12-18T12:46:59.712Z,2.65
2022-12-18T12:50:08.080Z,2.71
2022-12-18T12:53:13.142Z,2.63
2022-12-18T12:56:19.826Z,2.61
2022-12-18T12:59:46.703Z,2.60
2022-12-18T13:03:17.355Z,2.61
2022-12-18T13:06:27.577Z,2.52
2022-12-18T13:09:32.507Z,2.55
2022-12-18T13:12:57.048Z,2.65
2022-12-18T13:15:59.625Z,2.77
2022-12-18T13:19:10.388Z,2.62
2022-12-18T13:22:17.031Z,2.63
2022-12-18T13:25:51.639Z,2.47
2022-12-18T13:29:02.166Z,2.46
2022-12-18T13:32:18.415Z,2.38
2022-12-18T13:35:41.514Z,2.38
2022-12-18T13:38:51.273Z,2.44
2022-12-18T13:41:57.352Z,2.41
2022-12-18T13:45:02.301Z,2.33
2022-12-18T13:48:07.292Z,2.28
2022-12-18T13:51:25.945Z,2.33
2022-12-18T13:54:36.150Z,2.35
2022-12-18T13:57:51.091Z,2.23
2022-12-18T14:00:59.243Z,2.20
2022-12-18T14:04:06.078Z,2.16
2022-12-18T14:07:20.241Z,2.11
2022-12-18T14:13:55.262Z,2.15
2022-12-18T14:17:01.822Z,2.11
2022-12-18T14:20:08.503Z,1.94
2022-12-18T14:23:14.406Z,1.99
2022-12-18T14:26:40.793Z,2.05
2022-12-18T14:29:46.398Z,1.87
2022-12-18T14:32:53.040Z,1.78
2022-12-18T14:36:17.056Z,1.73
2022-12-18T14:39:24.911Z,1.70
2022-12-18T14:42:31.298Z,1.62
2022-12-18T14:45:59.778Z,1.70
2022-12-18T14:49:04.854Z,1.70
2022-12-18T14:52:14.661Z,1.54
2022-12-18T14:55:20.725Z,1.55
2022-12-18T14:58:27.103Z,1.54
2022-12-18T15:01:40.244Z,1.32
2022-12-18T15:04:49.088Z,1.17
2022-12-18T15:08:04.608Z,1.21
2022-12-18T15:11:13.277Z,1.19
2022-12-18T15:14:42.781Z,1.17
2022-12-18T15:17:48.168Z,1.01
2022-12-18T15:21:07.723Z,0.89
2022-12-18T15:24:13.352Z,0.81
2022-12-18T15:27:19.071Z,0.75
2022-12-18T15:30:35.146Z,1.13
2022-12-18T15:33:42.021Z,1.13
2022-12-18T15:36:47.122Z,1.06
2022-12-18T15:39:53.573Z,0.95
2022-12-18T15:43:18.566Z,0.86
2022-12-18T15:46:36.305Z,0.85
2022-12-18T15:49:41.760Z,0.95
2022-12-18T15:52:57.596Z,0.99
2022-12-18T15:56:21.431Z,0.99
2022-12-18T15:59:31.169Z,0.94
2022-12-18T16:02:38.773Z,0.80
2022-12-18T16:05:45.557Z,0.76
2022-12-18T16:08:50.570Z,0.60
2022-12-18T16:11:58.155Z,0.40
2022-12-18T16:15:03.827Z,0.47
2022-12-18T16:18:09.946Z,0.38
2022-12-18T16:21:15.781Z,0.32
2022-12-18T16:24:21.087Z,0.29
2022-12-18T16:27:27.076Z,0.23
2022-12-18T16:30:38.650Z,0.20
2022-12-18T16:33:42.760Z,0.22
2022-12-18T16:36:42.157Z,0.30
2022-12-18T16:39:47.139Z,0.33
2022-12-18T16:42:48.695Z,0.29
2022-12-18T16:45:53.960Z,0.13
2022-12-18T16:49:00.597Z,0.17
2022-12-18T16:52:06.128Z,0.02
2022-12-18T16:55:11.145Z,-0.01
2022-12-18T16:58:16.763Z,-0.04
2022-12-18T17:01:26.813Z,-0.04
2022-12-18T17:04:31.516Z,-0.07
2022-12-18T17:07:37.652Z,-0.01
2022-12-18T17:10:44.072Z,-0.10
2022-12-18T17:13:44.576Z,-0.04
2022-12-18T17:17:07.204Z,0.34
2022-12-18T17:19:51.060Z,0.54
2022-12-18T17:22:38.100Z,0.34
2022-12-18T17:25:30.658Z,0.68
2022-12-18T17:28:23.362Z,0.54
2022-12-18T17:31:36.445Z,0.42
2022-12-18T17:34:43.272Z,0.54
2022-12-18T17:37:49.947Z,0.58
2022-12-18T17:40:56.829Z,0.24
2022-12-18T17:44:10.419Z,0.46
2022-12-18T17:47:17.904Z,0.64
2022-12-18T17:50:23.982Z,0.73
2022-12-18T17:53:30.066Z,0.75
2022-12-18T17:56:36.553Z,0.70
2022-12-18T17:59:42.998Z,0.64
2022-12-18T18:02:49.478Z,0.54
2022-12-18T18:05:55.827Z,0.28
2022-12-18T18:09:01.435Z,0.36
2022-12-18T18:12:25.674Z,0.31
2022-12-18T18:15:31.308Z,0.25
2022-12-18T18:18:36.600Z,0.13
2022-12-18T18:21:37.058Z,-0.06
2022-12-18T18:24:42.949Z,-0.04
2022-12-18T18:27:49.763Z,-0.04
2022-12-18T18:30:55.852Z,0.09
2022-12-18T18:34:00.891Z,0.04
2022-12-18T18:37:06.492Z,0.04
2022-12-18T18:40:11.802Z,0.08
2022-12-18T18:43:16.629Z,0.08
2022-12-18T18:46:21.936Z,0.03
2022-12-18T18:49:28.469Z,0.03
2022-12-18T18:52:27.284Z,0.01
2022-12-18T18:55:25.839Z,-0.07
2022-12-18T18:58:27.355Z,-0.11
2022-12-18T19:01:35.155Z,-0.07
2022-12-18T19:04:45.785Z,-0.20
2022-12-18T19:07:49.061Z,-0.20
2022-12-18T19:10:57.810Z,-0.21
2022-12-18T19:14:03.247Z,-0.25
2022-12-18T19:17:09.555Z,-0.26
2022-12-18T19:20:15.507Z,-0.27
2022-12-18T19:23:20.655Z,-0.24
2022-12-18T19:26:28.553Z,-0.34
2022-12-18T19:29:32.905Z,-0.41
2022-12-18T19:32:38.727Z,-0.45
2022-12-18T19:35:37.952Z,-0.42
2022-12-18T19:38:31.213Z,-0.49
2022-12-18T19:41:37.175Z,-0.37
2022-12-18T19:44:42.466Z,-0.24
2022-12-18T19:47:48.143Z,-0.26
2022-12-18T19:50:56.761Z,-0.32
2022-12-18T19:54:02.234Z,-0.42
2022-12-18T19:57:08.920Z,-0.36
2022-12-18T20:00:18.813Z,-0.22
2022-12-18T20:03:30.592Z,-0.27
2022-12-18T20:06:41.240Z,-0.29
2022-12-18T20:09:47.889Z,-0.23
2022-12-18T20:12:54.343Z,-0.34
2022-12-18T20:16:00.610Z,-0.40
2022-12-18T20:19:06.539Z,-0.60
2022-12-18T20:22:12.260Z,-0.63
2022-12-18T20:25:17.834Z,-0.54
2022-12-18T20:28:23.591Z,-0.56
2022-12-18T20:31:29.792Z,-0.52
2022-12-18T20:34:34.938Z,-0.40
2022-12-18T20:37:43.822Z,-0.33
2022-12-18T20:40:48.247Z,-0.29
2022-12-18T20:43:56.016Z,-0.27
2022-12-18T20:47:02.349Z,-0.32
2022-12-18T20:50:09.667Z,-0.41
2022-12-18T20:53:15.621Z,-0.47
2022-12-18T20:56:24.248Z,-0.42
2022-12-18T20:59:31.947Z,-0.40
2022-12-18T21:02:38.416Z,-0.49
2022-12-18T21:05:44.895Z,-0.56
2022-12-18T21:08:44.725Z,-0.49
2022-12-18T21:12:10.316Z,-0.48
2022-12-18T21:15:28.228Z,-0.48
2022-12-18T21:18:29.651Z,-0.65
2022-12-18T21:21:38.456Z,-0.60
2022-12-18T21:24:41.447Z,-0.74
2022-12-18T21:27:46.898Z,-0.67
2022-12-18T21:30:53.396Z,-0.66
2022-12-18T21:34:02.148Z,-0.66
2022-12-18T21:37:09.297Z,-0.58
2022-12-18T21:40:14.723Z,-0.62
2022-12-18T21:43:37.925Z,-0.71
2022-12-18T21:46:43.274Z,-0.78
2022-12-18T21:49:50.066Z,-0.77
2022-12-18T21:52:56.725Z,-0.68
2022-12-18T21:56:04.877Z,-0.47
2022-12-18T21:59:12.072Z,-0.54
2022-12-18T22:02:22.126Z,-0.62
2022-12-18T22:05:28.346Z,-0.60
2022-12-18T22:08:33.981Z,-0.77
2022-12-18T22:11:40.324Z,-0.63
2022-12-18T22:14:46.898Z,-0.54
2022-12-18T22:17:56.984Z,-0.71
2022-12-18T22:21:00.642Z,-0.81
2022-12-18T22:24:14.577Z,-0.78
2022-12-18T22:27:20.504Z,-0.72
2022-12-18T22:30:29.078Z,-0.71
2022-12-18T22:33:34.738Z,-0.71
2022-12-18T22:36:39.869Z,-0.54
2022-12-18T22:39:46.697Z,-0.74
2022-12-18T22:42:53.896Z,-0.27
2022-12-18T22:46:00.065Z,-0.59
2022-12-18T22:49:05.556Z,-0.75
2022-12-18T22:52:11.178Z,-0.80
2022-12-18T22:55:17.860Z,-0.76
2022-12-18T22:58:23.438Z,-0.69
2022-12-18T23:01:34.940Z,-0.63
2022-12-18T23:04:45.625Z,-0.55
2022-12-18T23:07:51.594Z,-0.69
2022-12-18T23:10:57.813Z,-0.71
2022-12-18T23:14:04.840Z,-0.70
2022-12-18T23:17:10.596Z,-0.59
2022-12-18T23:20:16.210Z,-0.50
2022-12-18T23:23:21.830Z,-0.61
2022-12-18T23:26:36.212Z,-0.74
2022-12-18T23:29:41.517Z,-0.83
2022-12-18T23:32:52.133Z,-0.79
2022-12-18T23:35:59.095Z,-0.73
2022-12-18T23:39:12.158Z,-0.69
2022-12-18T23:42:19.193Z,-0.54
2022-12-18T23:45:26.526Z,-0.56
2022-12-18T23:48:33.880Z,-0.64
2022-12-18T23:51:39.091Z,-0.69
2022-12-18T23:54:45.962Z,-0.77
2022-12-18T23:57:52.606Z,-0.65
